This is the latest recevied weather packets stored in our database for station/object KI5RAB. If no packets are shown the sender has not sent any weather packets the latest 10 day(s).
| Time | Temp. | Humidity | Pressure | Rain* | Wind** | Luminosity | Snow |
|---|---|---|---|---|---|---|---|
| 1778191272 | 20.56° C | 63% | 1017.9 hPa | 0 mm | - | 154 W/m² | - |
| 1778190968 | 20.56° C | 64% | 1018.5 hPa | 0 mm | - | 119 W/m² | - |
| 1778190666 | 20.56° C | 64% | 1018.7 hPa | 0 mm | - | 75 W/m² | - |
| 1778190363 | 20.56° C | 64% | 1019 hPa | 0 mm | - | 41 W/m² | - |
| 1778190059 | 20.56° C | 64% | 1018.9 hPa | 0 mm | - | 63 W/m² | - |
| 1778189755 | 20.56° C | 64% | 1018.7 hPa | 0 mm | - | 68 W/m² | - |
| 1778189453 | 20.56° C | 65% | 1018.5 hPa | 0 mm | - | 101 W/m² | - |
| 1778189148 | 20.56° C | 65% | 1018.8 hPa | 0 mm | - | 74 W/m² | - |
| 1778188846 | 20.56° C | 66% | 1018.9 hPa | 0 mm | - | 71 W/m² | - |
| 1778188542 | 20.56° C | 66% | 1018.8 hPa | 0 mm | - | 87 W/m² | - |
| 1778188238 | 21.11° C | 65% | 1018.9 hPa | 0 mm | - | 83 W/m² | - |
| 1778187936 | 21.67° C | 65% | 1019 hPa | 0 mm | - | 171 W/m² | - |
| 1778187632 | 21.11° C | 67% | 1018.6 hPa | 0 mm | - | 204 W/m² | - |
| 1778187329 | 21.11° C | 66% | 1018.8 hPa | 0 mm | - | 163 W/m² | - |
| 1778187025 | 21.11° C | 67% | 1018.6 hPa | 0 mm | - | 201 W/m² | - |
| 1778186721 | 20.56° C | 68% | 1018.3 hPa | 0 mm | - | 228 W/m² | - |
| 1778186419 | 20.56° C | 69% | 1018.6 hPa | 0 mm | - | 226 W/m² | - |
| 1778186117 | 20° C | 68% | 1018.7 hPa | 0 mm | - | 261 W/m² | - |
| 1778185814 | 20.56° C | 68% | 1018.8 hPa | 0 mm | - | 257 W/m² | - |
| 1778185510 | 20.56° C | 68% | 1019 hPa | 0 mm | - | 246 W/m² | - |
| 1778185206 | 20.56° C | 67% | 1018.7 hPa | 0 mm | - | 353 W/m² | - |
| 1778184902 | 21.11° C | 68% | 1018.3 hPa | 0 mm | - | 435 W/m² | - |
| 1778184598 | 20.56° C | 69% | 1018.3 hPa | 0 mm | - | 585 W/m² | - |
| 1778184294 | 19.44° C | 74% | 1018.3 hPa | 0 mm | - | 792 W/m² | - |
| 1778183989 | 19.44° C | 75% | 1018.9 hPa | 0 mm | - | 269 W/m² | - |
* Rain latest hour (hover to see other rain measurements)
** Current wind speed in m/s (hover to see current wind gust speed)